Time;durP1;ratioP1;P1;durP2;ratioP2;P2;SDS_P1;SDS_P2;PMS_P1;PMS_P2;Temp;Humidity;BMP_temperature;BMP_pressure;BME280_temperature;BME280_humidity;BME280_pressure;Samples;Min_cycle;Max_cycle;Signal;HPM_P1;HPM_P2
2021/01/24 00:01:54;;;;;;;13.40;9.77;;;;;;;;;;4935465;29;20096;-85
2021/01/24 00:04:20;;;;;;;13.82;8.20;;;;;;;;;;4937135;29;20075;-85
2021/01/24 00:06:47;;;;;;;12.57;8.60;;;;;;;;;;4934158;29;20054;-85
2021/01/24 00:09:13;;;;;;;14.57;8.18;;;;;;;;;;4936570;29;20044;-85
2021/01/24 00:11:39;;;;;;;11.57;6.90;;;;;;;;;;4946569;29;20054;-85
2021/01/24 00:14:05;;;;;;;10.38;5.82;;;;;;;;;;4933457;29;20051;-85
2021/01/24 00:16:31;;;;;;;10.15;6.05;;;;;;;;;;4926362;29;20402;-85
2021/01/24 00:18:57;;;;;;;9.80;6.10;;;;;;;;;;4926132;29;20131;-85
2021/01/24 00:21:23;;;;;;;10.35;6.50;;;;;;;;;;4926066;29;20052;-85
2021/01/24 00:23:50;;;;;;;9.20;5.78;;;;;;;;;;4926581;29;20064;-85
2021/01/24 00:26:16;;;;;;;7.63;4.90;;;;;;;;;;4926989;29;20413;-85
2021/01/24 00:28:42;;;;;;;7.22;4.88;;;;;;;;;;4931574;29;20055;-84
2021/01/24 00:31:08;;;;;;;8.35;4.80;;;;;;;;;;4935250;29;20052;-84
2021/01/24 00:33:34;;;;;;;7.28;4.65;;;;;;;;;;4934157;29;20052;-85
2021/01/24 00:36:00;;;;;;;7.68;4.40;;;;;;;;;;4927387;29;20084;-85
2021/01/24 00:38:26;;;;;;;5.53;3.55;;;;;;;;;;4927207;29;20059;-85
2021/01/24 00:40:53;;;;;;;4.13;2.20;;;;;;;;;;4926302;29;20067;-84
2021/01/24 00:43:20;;;;;;;3.92;2.25;;;;;;;;;;4926205;29;20493;-84
2021/01/24 00:45:48;;;;;;;4.13;2.20;;;;;;;;;;4926850;29;20100;-85
2021/01/24 00:48:14;;;;;;;3.75;1.70;;;;;;;;;;4926397;29;20133;-85
2021/01/24 00:50:40;;;;;;;3.40;1.73;;;;;;;;;;4926405;29;20044;-84
2021/01/24 00:53:06;;;;;;;4.60;1.83;;;;;;;;;;4927298;29;20052;-84
2021/01/24 00:55:32;;;;;;;3.45;1.55;;;;;;;;;;4943255;29;20051;-85
2021/01/24 00:57:59;;;;;;;2.53;1.23;;;;;;;;;;4939101;29;20096;-85
2021/01/24 01:00:25;;;;;;;2.92;1.25;;;;;;;;;;4938789;29;20052;-85
2021/01/24 01:02:51;;;;;;;3.22;1.50;;;;;;;;;;4932782;29;20051;-85
2021/01/24 01:05:17;;;;;;;3.10;1.45;;;;;;;;;;4937097;29;20099;-84
2021/01/24 01:07:43;;;;;;;2.13;1.17;;;;;;;;;;4932294;29;20062;-85
2021/01/24 01:10:10;;;;;;;2.78;1.73;;;;;;;;;;4935081;29;20047;-85
2021/01/24 01:12:36;;;;;;;2.17;1.40;;;;;;;;;;4924966;29;20394;-85
2021/01/24 01:15:03;;;;;;;3.13;1.58;;;;;;;;;;4937739;29;20056;-85
2021/01/24 01:17:29;;;;;;;2.30;1.33;;;;;;;;;;4931064;29;20071;-85
2021/01/24 01:19:55;;;;;;;2.95;1.40;;;;;;;;;;4923445;29;20084;-86
2021/01/24 01:22:21;;;;;;;2.95;1.63;;;;;;;;;;4923424;29;20083;-86
2021/01/24 01:24:47;;;;;;;2.45;1.48;;;;;;;;;;4926122;29;20153;-85
2021/01/24 01:27:13;;;;;;;2.80;1.48;;;;;;;;;;4923409;29;20055;-85
2021/01/24 01:29:39;;;;;;;2.83;1.77;;;;;;;;;;4922755;29;20071;-85
2021/01/24 01:32:06;;;;;;;2.80;1.60;;;;;;;;;;4915519;29;20044;-86
2021/01/24 01:34:32;;;;;;;2.60;1.70;;;;;;;;;;4925597;29;20039;-86
2021/01/24 01:36:58;;;;;;;2.70;1.73;;;;;;;;;;4923076;29;20055;-85
2021/01/24 01:39:24;;;;;;;3.65;2.05;;;;;;;;;;4927946;29;20043;-85
2021/01/24 01:41:50;;;;;;;2.85;1.77;;;;;;;;;;4929198;29;20108;-85
2021/01/24 01:44:16;;;;;;;3.50;1.83;;;;;;;;;;4927606;29;20123;-86
2021/01/24 01:46:42;;;;;;;3.08;1.88;;;;;;;;;;4923846;29;20048;-85
2021/01/24 01:49:09;;;;;;;3.63;2.00;;;;;;;;;;4923571;29;20087;-86
2021/01/24 01:51:35;;;;;;;3.50;2.17;;;;;;;;;;4923180;29;20048;-85
2021/01/24 01:54:01;;;;;;;3.47;1.90;;;;;;;;;;4923580;29;20044;-85
2021/01/24 01:56:27;;;;;;;2.97;1.70;;;;;;;;;;4922749;29;20063;-85
2021/01/24 01:58:53;;;;;;;3.13;1.88;;;;;;;;;;4923757;29;20056;-85
2021/01/24 02:01:28;;;;;;;3.50;1.90;;;;;;;;;;4924768;29;20168;-83
2021/01/24 02:03:58;;;;;;;3.08;1.80;;;;;;;;;;4928566;29;20044;-82
2021/01/24 02:06:32;;;;;;;2.47;1.45;;;;;;;;;;4927475;29;20052;-83
2021/01/24 02:09:04;;;;;;;2.58;1.67;;;;;;;;;;4923556;29;20458;-83
2021/01/24 02:11:34;;;;;;;3.03;1.70;;;;;;;;;;4924068;29;20052;-83
2021/01/24 02:14:06;;;;;;;2.70;1.73;;;;;;;;;;4922664;29;20052;-83
2021/01/24 02:16:33;;;;;;;2.33;1.50;;;;;;;;;;4923157;29;20501;-83
2021/01/24 02:19:00;;;;;;;3.00;1.85;;;;;;;;;;4922887;29;20120;-83
2021/01/24 02:21:30;;;;;;;2.70;1.77;;;;;;;;;;4923372;29;20113;-83
2021/01/24 02:23:57;;;;;;;3.05;1.67;;;;;;;;;;4922654;29;20076;-83
2021/01/24 02:26:28;;;;;;;2.05;1.50;;;;;;;;;;4923110;29;20048;-83
2021/01/24 02:29:06;;;;;;;3.00;1.58;;;;;;;;;;4922921;29;20104;-83
2021/01/24 02:31:33;;;;;;;2.33;1.52;;;;;;;;;;4923604;29;20052;-83
2021/01/24 02:34:01;;;;;;;3.35;2.03;;;;;;;;;;4923153;29;20048;-83
2021/01/24 02:36:28;;;;;;;2.35;1.58;;;;;;;;;;4922763;29;20060;-83
2021/01/24 02:38:55;;;;;;;2.60;2.05;;;;;;;;;;4922484;29;20112;-83
2021/01/24 02:41:22;;;;;;;3.03;1.80;;;;;;;;;;4934072;29;20052;-83
2021/01/24 02:43:49;;;;;;;2.88;1.55;;;;;;;;;;4932473;29;20055;-84
2021/01/24 02:46:16;;;;;;;2.65;1.67;;;;;;;;;;4921828;29;20056;-84
2021/01/24 02:48:44;;;;;;;2.95;1.48;;;;;;;;;;4922173;29;20143;-83
2021/01/24 02:51:11;;;;;;;2.88;1.55;;;;;;;;;;4921482;29;20084;-83
2021/01/24 02:53:38;;;;;;;2.40;1.40;;;;;;;;;;4922407;29;20055;-83
2021/01/24 02:56:05;;;;;;;2.35;1.40;;;;;;;;;;4922834;29;20072;-83
2021/01/24 02:58:31;;;;;;;3.17;1.90;;;;;;;;;;4922189;29;20048;-83
2021/01/24 03:00:57;;;;;;;2.50;1.52;;;;;;;;;;4938006;29;20570;-83
2021/01/24 03:03:24;;;;;;;2.80;1.65;;;;;;;;;;4933014;29;20048;-83
2021/01/24 03:05:51;;;;;;;2.65;1.63;;;;;;;;;;4931116;29;20063;-83
2021/01/24 03:08:17;;;;;;;3.20;1.77;;;;;;;;;;4928109;29;20056;-83
2021/01/24 03:10:43;;;;;;;2.75;1.52;;;;;;;;;;4921836;29;20556;-83
2021/01/24 03:13:12;;;;;;;2.70;1.52;;;;;;;;;;4921501;29;20055;-83
2021/01/24 03:15:38;;;;;;;2.55;1.50;;;;;;;;;;4920575;29;20052;-83
2021/01/24 03:18:06;;;;;;;2.70;1.40;;;;;;;;;;4920924;29;20052;-83
2021/01/24 03:20:36;;;;;;;3.08;1.55;;;;;;;;;;4921127;29;20497;-83
2021/01/24 03:23:03;;;;;;;1.75;1.23;;;;;;;;;;4922072;29;20101;-83
2021/01/24 03:25:30;;;;;;;3.28;1.50;;;;;;;;;;4921399;29;20107;-83
2021/01/24 03:27:57;;;;;;;2.38;1.25;;;;;;;;;;4921484;29;20080;-83
2021/01/24 03:30:23;;;;;;;2.92;1.40;;;;;;;;;;4921263;29;20063;-83
2021/01/24 03:32:49;;;;;;;2.70;1.30;;;;;;;;;;4921019;29;20048;-83
2021/01/24 03:35:15;;;;;;;1.58;1.02;;;;;;;;;;4902441;29;20056;-83
2021/01/24 03:37:41;;;;;;;2.00;1.02;;;;;;;;;;4902228;29;20052;-83
2021/01/24 03:40:09;;;;;;;4.50;1.20;;;;;;;;;;4901764;29;20490;-83
2021/01/24 03:42:35;;;;;;;3.55;1.40;;;;;;;;;;4901728;29;20057;-83
2021/01/24 03:45:01;;;;;;;2.22;1.20;;;;;;;;;;4921058;29;20054;-83
2021/01/24 03:47:27;;;;;;;1.70;1.00;;;;;;;;;;4934121;29;20058;-83
2021/01/24 03:49:53;;;;;;;1.60;0.98;;;;;;;;;;4939815;29;20044;-83
2021/01/24 03:52:19;;;;;;;1.92;1.10;;;;;;;;;;4939443;29;20051;-83
2021/01/24 03:54:45;;;;;;;2.28;1.10;;;;;;;;;;4922067;29;20062;-82
2021/01/24 03:57:12;;;;;;;2.70;1.10;;;;;;;;;;4931946;29;20076;-82
2021/01/24 03:59:38;;;;;;;2.95;1.00;;;;;;;;;;4940941;29;20052;-82
2021/01/24 04:02:04;;;;;;;1.45;0.93;;;;;;;;;;4940069;29;20054;-82
2021/01/24 04:04:30;;;;;;;1.75;1.10;;;;;;;;;;4930487;29;20044;-82
2021/01/24 04:06:56;;;;;;;2.33;0.77;;;;;;;;;;4929884;29;20056;-82
2021/01/24 04:09:22;;;;;;;1.38;0.88;;;;;;;;;;4940071;29;20055;-83
2021/01/24 04:11:49;;;;;;;1.50;0.77;;;;;;;;;;4940088;29;20116;-82
2021/01/24 04:14:16;;;;;;;2.55;0.73;;;;;;;;;;4927661;29;20048;-81
2021/01/24 04:16:42;;;;;;;1.05;0.80;;;;;;;;;;4921444;29;20056;-82
2021/01/24 04:19:08;;;;;;;1.73;0.50;;;;;;;;;;4920743;29;20056;-82
2021/01/24 04:21:34;;;;;;;1.27;0.60;;;;;;;;;;4920755;29;20060;-81
2021/01/24 04:24:00;;;;;;;1.30;0.60;;;;;;;;;;4920239;29;20503;-82
2021/01/24 04:26:26;;;;;;;1.50;0.60;;;;;;;;;;4922066;29;20481;-82
2021/01/24 04:28:52;;;;;;;0.50;0.50;;;;;;;;;;4921815;29;20108;-82
2021/01/24 04:31:18;;;;;;;0.77;0.50;;;;;;;;;;4922302;29;20095;-82
2021/01/24 04:33:44;;;;;;;0.65;0.52;;;;;;;;;;4920663;29;20058;-82
2021/01/24 04:36:10;;;;;;;0.60;0.47;;;;;;;;;;4919920;29;20056;-81
2021/01/24 04:38:36;;;;;;;0.65;0.50;;;;;;;;;;4920962;29;20052;-82
2021/01/24 04:41:02;;;;;;;0.80;0.60;;;;;;;;;;4921711;29;20714;-81
2021/01/24 04:43:28;;;;;;;0.63;0.50;;;;;;;;;;4920382;29;20050;-82
2021/01/24 04:45:56;;;;;;;1.48;0.55;;;;;;;;;;4923784;29;20489;-82
2021/01/24 04:48:22;;;;;;;2.63;0.60;;;;;;;;;;4925406;29;20048;-81
2021/01/24 04:50:49;;;;;;;0.75;0.57;;;;;;;;;;4925592;29;20048;-81
2021/01/24 04:53:15;;;;;;;1.58;0.63;;;;;;;;;;4925603;29;20052;-81
2021/01/24 04:55:41;;;;;;;1.17;0.68;;;;;;;;;;4924015;29;20048;-81
2021/01/24 04:58:07;;;;;;;1.48;0.80;;;;;;;;;;4923572;29;20055;-81
2021/01/24 05:00:34;;;;;;;0.85;0.70;;;;;;;;;;4923419;29;20085;-82
2021/01/24 05:03:00;;;;;;;0.88;0.57;;;;;;;;;;4923686;29;20067;-82
2021/01/24 05:05:27;;;;;;;1.70;0.65;;;;;;;;;;4927446;29;20054;-82
2021/01/24 05:07:56;;;;;;;1.10;0.70;;;;;;;;;;4931649;29;20457;-82
2021/01/24 05:10:23;;;;;;;1.35;0.85;;;;;;;;;;4923679;29;20478;-83
2021/01/24 05:12:49;;;;;;;1.92;1.10;;;;;;;;;;4922852;29;20133;-82
2021/01/24 05:15:15;;;;;;;1.20;0.82;;;;;;;;;;4922701;29;20056;-81
2021/01/24 05:17:53;;;;;;;0.65;0.50;;;;;;;;;;4923308;29;20056;-82
2021/01/24 05:20:23;;;;;;;1.75;0.68;;;;;;;;;;4923327;29;20512;-82
2021/01/24 05:22:50;;;;;;;1.60;0.57;;;;;;;;;;4922452;29;20052;-82
2021/01/24 05:25:22;;;;;;;0.88;0.60;;;;;;;;;;4920571;29;20048;-83
2021/01/24 05:27:49;;;;;;;1.08;0.63;;;;;;;;;;4922703;29;20055;-82
2021/01/24 05:30:21;;;;;;;0.88;0.50;;;;;;;;;;4923300;29;20409;-82
2021/01/24 05:32:47;;;;;;;1.75;0.47;;;;;;;;;;4923592;29;20091;-82
2021/01/24 05:35:14;;;;;;;1.23;0.75;;;;;;;;;;4923363;29;20055;-82
2021/01/24 05:37:40;;;;;;;1.05;0.68;;;;;;;;;;4923020;29;20060;-81
2021/01/24 05:40:09;;;;;;;3.08;0.90;;;;;;;;;;4922701;29;20063;-82
2021/01/24 05:42:36;;;;;;;1.17;0.63;;;;;;;;;;4921963;29;20541;-82
2021/01/24 05:45:03;;;;;;;1.67;0.40;;;;;;;;;;4923188;29;20052;-82
2021/01/24 05:47:32;;;;;;;2.10;0.80;;;;;;;;;;4922610;29;20055;-82
2021/01/24 05:49:58;;;;;;;0.93;0.45;;;;;;;;;;4921731;29;20482;-83
2021/01/24 05:52:26;;;;;;;0.88;0.55;;;;;;;;;;4930586;29;20055;-83
2021/01/24 05:54:52;;;;;;;2.03;0.73;;;;;;;;;;4922742;29;20056;-82
2021/01/24 05:57:23;;;;;;;1.00;0.60;;;;;;;;;;4921952;29;20048;-82
2021/01/24 05:59:53;;;;;;;0.80;0.60;;;;;;;;;;4923154;29;20060;-83
2021/01/24 06:02:21;;;;;;;0.82;0.50;;;;;;;;;;4930456;29;20051;-83
2021/01/24 06:04:48;;;;;;;0.85;0.50;;;;;;;;;;4923150;29;20052;-83
2021/01/24 06:07:15;;;;;;;0.57;0.50;;;;;;;;;;4928751;29;20051;-82
2021/01/24 06:09:41;;;;;;;0.47;0.47;;;;;;;;;;4931874;29;20055;-82
2021/01/24 06:12:08;;;;;;;1.40;0.68;;;;;;;;;;4922302;29;20051;-82
2021/01/24 06:14:38;;;;;;;0.90;0.70;;;;;;;;;;4922729;29;20059;-82
2021/01/24 06:17:09;;;;;;;1.48;0.85;;;;;;;;;;4921536;29;20067;-82
2021/01/24 06:19:39;;;;;;;2.50;0.60;;;;;;;;;;4921930;29;20052;-82
2021/01/24 06:22:07;;;;;;;2.80;1.20;;;;;;;;;;4921520;29;20048;-81
2021/01/24 06:24:36;;;;;;;1.83;1.00;;;;;;;;;;4921062;29;20401;-82
2021/01/24 06:27:03;;;;;;;3.63;1.08;;;;;;;;;;4921290;29;20063;-82
2021/01/24 06:29:30;;;;;;;2.22;1.30;;;;;;;;;;4922209;29;20052;-82
2021/01/24 06:31:57;;;;;;;2.83;1.50;;;;;;;;;;4921521;29;20067;-82
2021/01/24 06:34:32;;;;;;;2.22;1.08;;;;;;;;;;4920438;29;20540;-82
2021/01/24 06:37:04;;;;;;;4.00;1.40;;;;;;;;;;4920539;29;20055;-82
2021/01/24 06:39:31;;;;;;;2.88;1.20;;;;;;;;;;4920844;29;20503;-81
2021/01/24 06:41:57;;;;;;;2.85;1.60;;;;;;;;;;4920858;29;20048;-82
2021/01/24 06:44:36;;;;;;;2.25;1.48;;;;;;;;;;4921630;29;20128;-82
2021/01/24 06:47:05;;;;;;;1.92;1.20;;;;;;;;;;4922430;29;20048;-83
2021/01/24 06:49:42;;;;;;;3.20;1.40;;;;;;;;;;4922531;29;20063;-82
2021/01/24 06:52:15;;;;;;;2.80;1.52;;;;;;;;;;4924425;29;20052;-82
2021/01/24 06:54:41;;;;;;;2.65;1.50;;;;;;;;;;4921537;29;20052;-82
2021/01/24 06:57:09;;;;;;;1.90;1.13;;;;;;;;;;4922410;29;20059;-82
2021/01/24 06:59:35;;;;;;;2.42;1.58;;;;;;;;;;4921190;29;20048;-82
2021/01/24 07:02:33;;;;;;;2.17;1.20;;;;;;;;;;4920997;29;20115;-82
2021/01/24 07:05:18;;;;;;;2.20;1.10;;;;;;;;;;4909703;29;20055;-82
2021/01/24 07:07:45;;;;;;;2.58;1.30;;;;;;;;;;4925278;29;20051;-82
2021/01/24 07:10:44;;;;;;;1.88;1.27;;;;;;;;;;4933987;29;20141;-82
2021/01/24 07:13:32;;;;;;;2.90;1.20;;;;;;;;;;4934716;29;20052;-82
2021/01/24 07:15:59;;;;;;;2.33;1.30;;;;;;;;;;4920365;29;20051;-82
2021/01/24 07:18:25;;;;;;;2.28;1.20;;;;;;;;;;4919668;29;20059;-81
2021/01/24 07:20:54;;;;;;;3.65;1.60;;;;;;;;;;4919715;29;20051;-82
2021/01/24 07:23:20;;;;;;;4.10;1.83;;;;;;;;;;4920066;29;20063;-82
2021/01/24 07:25:46;;;;;;;3.33;1.90;;;;;;;;;;4921160;29;20048;-82
2021/01/24 07:28:13;;;;;;;3.10;1.58;;;;;;;;;;4922527;29;20076;-82
2021/01/24 07:30:39;;;;;;;3.22;1.83;;;;;;;;;;4920878;29;20122;-82
2021/01/24 07:33:05;;;;;;;4.40;1.90;;;;;;;;;;4920618;29;20119;-82
2021/01/24 07:35:34;;;;;;;3.40;1.80;;;;;;;;;;4920523;29;20063;-82
2021/01/24 07:38:01;;;;;;;3.70;1.63;;;;;;;;;;4920419;29;20060;-82
2021/01/24 07:40:28;;;;;;;3.25;2.05;;;;;;;;;;4928520;29;20056;-82
2021/01/24 07:42:54;;;;;;;2.97;1.67;;;;;;;;;;4937483;29;20048;-82
2021/01/24 07:45:20;;;;;;;3.35;1.83;;;;;;;;;;4920947;29;20056;-82
2021/01/24 07:47:46;;;;;;;2.75;1.60;;;;;;;;;;4921138;29;20048;-81
2021/01/24 07:50:13;;;;;;;4.30;1.67;;;;;;;;;;4931729;29;20052;-82
2021/01/24 07:52:39;;;;;;;3.80;1.90;;;;;;;;;;4921761;29;20095;-82
2021/01/24 07:55:07;;;;;;;3.97;1.88;;;;;;;;;;4921760;29;20044;-81
2021/01/24 07:57:33;;;;;;;3.28;1.77;;;;;;;;;;4921667;29;20074;-81
2021/01/24 07:59:59;;;;;;;3.58;2.00;;;;;;;;;;4926969;29;20048;-81
2021/01/24 08:02:27;;;;;;;2.90;1.80;;;;;;;;;;4939979;29;20044;-81
2021/01/24 08:04:53;;;;;;;3.08;1.73;;;;;;;;;;4920543;29;20056;-82
2021/01/24 08:07:19;;;;;;;3.90;2.08;;;;;;;;;;4902617;29;20060;-81
2021/01/24 08:09:46;;;;;;;3.33;1.77;;;;;;;;;;4917204;29;20084;-82
2021/01/24 08:12:14;;;;;;;3.45;1.63;;;;;;;;;;4921669;29;20045;-81
2021/01/24 08:14:40;;;;;;;3.05;1.50;;;;;;;;;;4922098;29;20063;-81
2021/01/24 08:17:07;;;;;;;3.63;1.90;;;;;;;;;;4930714;29;20054;-81
2021/01/24 08:19:33;;;;;;;3.63;1.38;;;;;;;;;;4944986;29;20111;-81
2021/01/24 08:22:00;;;;;;;2.58;1.48;;;;;;;;;;4945206;29;20056;-82
2021/01/24 08:24:26;;;;;;;1.50;0.95;;;;;;;;;;4930348;29;20056;-82
2021/01/24 08:26:53;;;;;;;3.53;1.50;;;;;;;;;;4925705;29;20056;-82
2021/01/24 08:29:19;;;;;;;2.60;1.45;;;;;;;;;;4925949;29;20063;-82
2021/01/24 08:31:45;;;;;;;2.65;1.42;;;;;;;;;;4925480;29;20055;-81
2021/01/24 08:34:12;;;;;;;2.72;1.50;;;;;;;;;;4926626;29;20047;-81
2021/01/24 08:36:39;;;;;;;2.30;1.40;;;;;;;;;;4938149;29;20052;-82
2021/01/24 08:39:05;;;;;;;5.30;2.58;;;;;;;;;;4945028;29;20052;-81
2021/01/24 08:41:32;;;;;;;3.60;2.00;;;;;;;;;;4946001;29;20059;-81
2021/01/24 08:44:06;;;;;;;2.55;1.73;;;;;;;;;;4936010;29;20052;-82
2021/01/24 08:46:37;;;;;;;3.90;1.90;;;;;;;;;;4928106;29;20052;-81
2021/01/24 08:49:08;;;;;;;2.50;1.70;;;;;;;;;;4928247;29;20138;-82
2021/01/24 08:51:43;;;;;;;2.53;1.58;;;;;;;;;;4928412;29;20390;-82
2021/01/24 08:54:14;;;;;;;2.95;1.83;;;;;;;;;;4928843;29;20052;-81
2021/01/24 08:56:40;;;;;;;3.92;1.98;;;;;;;;;;4928582;29;20055;-82
2021/01/24 08:59:19;;;;;;;3.58;1.70;;;;;;;;;;4928251;29;20468;-82
2021/01/24 09:01:46;;;;;;;3.83;1.95;;;;;;;;;;4944137;29;20048;-82
2021/01/24 09:04:26;;;;;;;3.25;1.73;;;;;;;;;;4934268;29;20048;-81
2021/01/24 09:07:06;;;;;;;4.50;1.65;;;;;;;;;;4940936;29;20052;-81
2021/01/24 09:09:32;;;;;;;5.10;2.25;;;;;;;;;;4941620;29;20058;-81
2021/01/24 09:11:59;;;;;;;3.80;2.08;;;;;;;;;;4932945;29;20052;-82
2021/01/24 09:14:25;;;;;;;4.25;2.15;;;;;;;;;;4927987;29;20075;-82
2021/01/24 09:17:10;;;;;;;6.00;2.70;;;;;;;;;;4940951;29;20047;-82
2021/01/24 09:19:40;;;;;;;3.38;2.05;;;;;;;;;;4929564;29;20067;-81
2021/01/24 09:22:07;;;;;;;5.35;2.08;;;;;;;;;;4931103;29;20060;-82
2021/01/24 09:24:33;;;;;;;3.75;2.17;;;;;;;;;;4929513;29;20100;-82
2021/01/24 09:26:59;;;;;;;4.90;2.00;;;;;;;;;;4928005;29;20048;-82
2021/01/24 09:29:25;;;;;;;3.85;2.13;;;;;;;;;;4938050;29;20072;-83
2021/01/24 09:31:51;;;;;;;3.40;2.00;;;;;;;;;;4928010;29;20055;-83
2021/01/24 09:34:18;;;;;;;4.72;2.13;;;;;;;;;;4929440;29;20044;-82
2021/01/24 09:36:44;;;;;;;2.80;1.60;;;;;;;;;;4933602;29;20048;-82
2021/01/24 09:39:10;;;;;;;4.15;1.98;;;;;;;;;;4927751;29;20056;-82
2021/01/24 09:41:36;;;;;;;3.45;2.13;;;;;;;;;;4928635;29;20088;-83
2021/01/24 09:44:04;;;;;;;3.58;2.25;;;;;;;;;;4931982;29;20047;-83
2021/01/24 09:46:30;;;;;;;3.45;1.90;;;;;;;;;;4936874;29;20161;-82
2021/01/24 09:48:56;;;;;;;3.05;1.67;;;;;;;;;;4928713;29;20052;-82
2021/01/24 09:51:23;;;;;;;5.40;2.10;;;;;;;;;;4927890;29;20394;-82
2021/01/24 09:53:50;;;;;;;3.50;1.92;;;;;;;;;;4926571;29;20052;-83
2021/01/24 09:56:16;;;;;;;3.28;1.90;;;;;;;;;;4926640;29;20079;-83
2021/01/24 09:58:45;;;;;;;3.97;2.10;;;;;;;;;;4937042;29;20047;-83
2021/01/24 10:01:11;;;;;;;3.75;1.70;;;;;;;;;;4926446;29;20052;-82
2021/01/24 10:03:37;;;;;;;4.32;1.92;;;;;;;;;;4927775;29;20052;-82
2021/01/24 10:06:03;;;;;;;4.03;1.83;;;;;;;;;;4926405;29;20059;-81
2021/01/24 10:08:30;;;;;;;4.47;1.63;;;;;;;;;;4926262;29;20048;-82
2021/01/24 10:10:56;;;;;;;4.20;1.80;;;;;;;;;;4923629;29;20478;-82
2021/01/24 10:13:22;;;;;;;3.63;1.70;;;;;;;;;;4926916;29;20056;-82
2021/01/24 10:15:50;;;;;;;3.00;1.90;;;;;;;;;;4926101;29;20051;-82
2021/01/24 10:18:16;;;;;;;3.00;1.70;;;;;;;;;;4933418;29;20074;-82
2021/01/24 10:20:42;;;;;;;3.60;1.92;;;;;;;;;;4935734;29;20543;-82
2021/01/24 10:23:09;;;;;;;3.20;1.80;;;;;;;;;;4933511;29;20048;-83
2021/01/24 10:25:35;;;;;;;4.93;2.28;;;;;;;;;;4940019;29;20077;-82
2021/01/24 10:28:02;;;;;;;3.53;1.88;;;;;;;;;;4938471;29;20079;-84
2021/01/24 10:30:28;;;;;;;3.40;2.00;;;;;;;;;;4934346;29;20146;-84
2021/01/24 10:32:54;;;;;;;4.70;1.92;;;;;;;;;;4938507;29;20052;-84
2021/01/24 10:35:20;;;;;;;3.75;1.67;;;;;;;;;;4929871;29;20348;-84
2021/01/24 10:37:46;;;;;;;3.88;2.15;;;;;;;;;;4938369;29;20055;-83
2021/01/24 10:40:13;;;;;;;3.40;1.60;;;;;;;;;;4938512;29;20078;-83
2021/01/24 10:42:40;;;;;;;3.50;1.98;;;;;;;;;;4935190;29;20409;-83
2021/01/24 10:45:08;;;;;;;5.07;2.00;;;;;;;;;;4939936;29;20103;-84
2021/01/24 10:47:35;;;;;;;3.25;1.67;;;;;;;;;;4939112;29;20044;-83
2021/01/24 10:50:01;;;;;;;5.53;1.70;;;;;;;;;;4932187;29;20202;-83
2021/01/24 10:52:27;;;;;;;3.40;1.90;;;;;;;;;;4941866;29;20508;-83
2021/01/24 10:55:07;;;;;;;4.22;2.47;;;;;;;;;;4936906;29;20048;-83
2021/01/24 10:57:34;;;;;;;5.03;2.92;;;;;;;;;;4935976;29;20056;-83
2021/01/24 11:00:01;;;;;;;3.28;2.10;;;;;;;;;;4933098;29;20092;-82
2021/01/24 11:02:27;;;;;;;3.25;1.88;;;;;;;;;;4928166;29;20055;-84
2021/01/24 11:04:53;;;;;;;3.60;2.15;;;;;;;;;;4924998;29;20048;-84
2021/01/24 11:07:19;;;;;;;3.60;1.90;;;;;;;;;;4923671;29;20075;-83
2021/01/24 11:09:45;;;;;;;4.22;1.60;;;;;;;;;;4929798;29;20059;-83
2021/01/24 11:12:11;;;;;;;3.70;1.88;;;;;;;;;;4937858;29;20048;-84
2021/01/24 11:14:37;;;;;;;4.30;1.48;;;;;;;;;;4938565;29;20059;-84
2021/01/24 11:17:04;;;;;;;3.75;2.20;;;;;;;;;;4934974;29;20059;-84
2021/01/24 11:19:30;;;;;;;5.47;2.17;;;;;;;;;;4935776;29;20055;-83
2021/01/24 11:21:56;;;;;;;6.50;2.22;;;;;;;;;;4931154;29;20549;-83
2021/01/24 11:24:22;;;;;;;3.92;2.03;;;;;;;;;;4927296;29;20092;-84
2021/01/24 11:26:49;;;;;;;4.68;2.20;;;;;;;;;;4929903;29;20055;-84
2021/01/24 11:29:15;;;;;;;3.70;2.03;;;;;;;;;;4931411;29;20477;-83
2021/01/24 11:31:41;;;;;;;4.10;2.08;;;;;;;;;;4936169;29;20476;-84
2021/01/24 11:34:11;;;;;;;5.80;2.08;;;;;;;;;;4932670;29;20071;-83
2021/01/24 11:36:37;;;;;;;3.63;1.90;;;;;;;;;;4935381;29;20541;-83
2021/01/24 11:39:05;;;;;;;7.15;2.53;;;;;;;;;;4932703;29;20059;-83
2021/01/24 11:41:31;;;;;;;5.05;2.35;;;;;;;;;;4936798;29;20070;-83
2021/01/24 11:43:58;;;;;;;6.80;2.83;;;;;;;;;;4936874;29;20044;-83
2021/01/24 11:46:24;;;;;;;4.30;2.35;;;;;;;;;;4927822;29;20050;-83
2021/01/24 11:48:50;;;;;;;4.43;2.80;;;;;;;;;;4926917;29;20048;-83
2021/01/24 11:51:17;;;;;;;7.45;3.28;;;;;;;;;;4928830;29;20051;-83
2021/01/24 11:53:43;;;;;;;5.75;1.80;;;;;;;;;;4940689;29;20048;-83
2021/01/24 11:56:09;;;;;;;3.60;2.28;;;;;;;;;;4937042;29;20088;-83
2021/01/24 11:58:35;;;;;;;4.43;2.05;;;;;;;;;;4931211;29;20039;-83
2021/01/24 12:01:02;;;;;;;6.68;2.25;;;;;;;;;;4933557;29;20056;-83
2021/01/24 12:03:28;;;;;;;4.95;1.88;;;;;;;;;;4924564;29;20076;-84
2021/01/24 12:05:54;;;;;;;3.92;2.10;;;;;;;;;;4936874;29;20107;-83
2021/01/24 12:08:20;;;;;;;3.05;2.10;;;;;;;;;;4937358;29;20048;-83
2021/01/24 12:10:46;;;;;;;4.03;2.13;;;;;;;;;;4931054;29;20047;-83
2021/01/24 12:13:12;;;;;;;8.18;2.45;;;;;;;;;;4926240;29;20081;-83
2021/01/24 12:15:38;;;;;;;2.83;1.75;;;;;;;;;;4936168;29;20056;-83
2021/01/24 12:18:05;;;;;;;6.28;2.72;;;;;;;;;;4926749;29;20107;-83
2021/01/24 12:20:31;;;;;;;3.03;1.65;;;;;;;;;;4924839;29;20052;-84
2021/01/24 12:22:57;;;;;;;4.25;1.90;;;;;;;;;;4935837;29;20052;-84
2021/01/24 12:25:24;;;;;;;6.82;2.00;;;;;;;;;;4941069;29;20055;-84
2021/01/24 12:27:50;;;;;;;3.03;1.65;;;;;;;;;;4930338;29;20416;-83
2021/01/24 12:30:16;;;;;;;3.47;2.08;;;;;;;;;;4932553;29;20052;-84
2021/01/24 12:32:42;;;;;;;5.70;2.03;;;;;;;;;;4929162;29;20465;-83
2021/01/24 12:35:09;;;;;;;4.45;1.90;;;;;;;;;;4936982;29;20051;-83
2021/01/24 12:37:36;;;;;;;2.88;1.70;;;;;;;;;;4927169;29;20052;-83
2021/01/24 12:40:03;;;;;;;3.17;1.80;;;;;;;;;;4929026;29;20059;-83
2021/01/24 12:42:29;;;;;;;3.00;1.92;;;;;;;;;;4929374;29;20076;-84
2021/01/24 12:44:55;;;;;;;4.18;2.15;;;;;;;;;;4932059;29;20047;-83
2021/01/24 12:47:21;;;;;;;4.53;1.90;;;;;;;;;;4935592;29;20058;-83
2021/01/24 12:49:47;;;;;;;10.88;2.35;;;;;;;;;;4921404;29;20056;-83
2021/01/24 12:52:13;;;;;;;3.80;1.90;;;;;;;;;;4922818;29;20060;-83
2021/01/24 12:54:40;;;;;;;3.38;1.73;;;;;;;;;;4921970;29;20466;-83
2021/01/24 12:57:06;;;;;;;5.82;2.17;;;;;;;;;;4922066;29;20059;-83
2021/01/24 12:59:33;;;;;;;3.00;1.73;;;;;;;;;;4922034;29;20382;-83
2021/01/24 13:02:03;;;;;;;3.17;1.98;;;;;;;;;;4923741;29;20482;-83
2021/01/24 13:04:29;;;;;;;3.85;2.00;;;;;;;;;;4936064;29;20438;-83
2021/01/24 13:06:55;;;;;;;4.68;2.30;;;;;;;;;;4925248;29;20055;-83
2021/01/24 13:09:21;;;;;;;4.70;2.17;;;;;;;;;;4924306;29;20044;-83
2021/01/24 13:11:47;;;;;;;4.35;1.80;;;;;;;;;;4931269;29;20044;-83
2021/01/24 13:14:13;;;;;;;3.20;2.13;;;;;;;;;;4927133;29;20052;-84
2021/01/24 13:16:40;;;;;;;4.38;2.30;;;;;;;;;;4939349;29;20060;-83
2021/01/24 13:19:06;;;;;;;4.93;2.28;;;;;;;;;;4929908;29;20052;-83
2021/01/24 13:21:32;;;;;;;3.47;2.08;;;;;;;;;;4926365;29;20111;-83
2021/01/24 13:23:58;;;;;;;3.67;1.88;;;;;;;;;;4927669;29;20135;-83
2021/01/24 13:26:24;;;;;;;3.13;1.40;;;;;;;;;;4926971;29;20080;-83
2021/01/24 13:28:50;;;;;;;4.65;1.92;;;;;;;;;;4926897;29;20071;-83
2021/01/24 13:31:19;;;;;;;3.15;1.60;;;;;;;;;;4941295;29;20182;-83
2021/01/24 13:33:46;;;;;;;4.13;1.20;;;;;;;;;;4943842;29;20052;-84
2021/01/24 13:36:12;;;;;;;2.80;1.40;;;;;;;;;;4928318;29;20052;-84
2021/01/24 13:38:38;;;;;;;2.83;1.67;;;;;;;;;;4927153;29;20059;-83
2021/01/24 13:41:04;;;;;;;2.67;1.60;;;;;;;;;;4928006;29;20055;-83
2021/01/24 13:43:32;;;;;;;3.40;1.70;;;;;;;;;;4927449;29;20181;-83
2021/01/24 13:45:58;;;;;;;2.92;1.77;;;;;;;;;;4927021;29;20062;-83
2021/01/24 13:48:23;;;;;;;4.75;1.90;;;;;;;;;;4930136;29;20063;-83
2021/01/24 13:50:51;;;;;;;4.03;1.63;;;;;;;;;;4927768;29;20156;-83
2021/01/24 13:53:17;;;;;;;4.07;1.88;;;;;;;;;;4927484;29;20056;-83
2021/01/24 13:55:43;;;;;;;4.93;2.47;;;;;;;;;;4927060;29;20482;-83
2021/01/24 13:58:09;;;;;;;5.07;2.10;;;;;;;;;;4927759;29;20048;-83
2021/01/24 14:00:35;;;;;;;7.45;3.45;;;;;;;;;;4928251;29;20520;-83
2021/01/24 14:03:01;;;;;;;2.60;1.88;;;;;;;;;;4936313;29;20056;-82
2021/01/24 14:05:27;;;;;;;4.18;1.70;;;;;;;;;;4938946;29;20087;-83
2021/01/24 14:07:53;;;;;;;3.60;2.10;;;;;;;;;;4932608;29;20118;-82
2021/01/24 14:10:20;;;;;;;3.40;1.70;;;;;;;;;;4932561;29;20051;-83
2021/01/24 14:12:46;;;;;;;3.42;2.15;;;;;;;;;;4935574;29;20044;-83
2021/01/24 14:15:13;;;;;;;4.72;2.47;;;;;;;;;;4936174;29;20048;-82
2021/01/24 14:17:39;;;;;;;3.97;1.88;;;;;;;;;;4931278;29;20056;-82
2021/01/24 14:20:07;;;;;;;5.70;2.10;;;;;;;;;;4926745;29;20048;-83
2021/01/24 14:22:33;;;;;;;4.63;2.33;;;;;;;;;;4933289;29;20044;-83
2021/01/24 14:25:00;;;;;;;5.47;2.20;;;;;;;;;;4941115;29;20052;-82
2021/01/24 14:27:26;;;;;;;4.70;2.38;;;;;;;;;;4940679;29;20047;-83
2021/01/24 14:29:52;;;;;;;4.43;2.22;;;;;;;;;;4929005;29;20420;-83
2021/01/24 14:32:20;;;;;;;4.03;1.95;;;;;;;;;;4940165;29;20055;-83
2021/01/24 14:34:46;;;;;;;4.55;1.95;;;;;;;;;;4935791;29;20051;-83
2021/01/24 14:37:12;;;;;;;3.95;2.15;;;;;;;;;;4932358;29;20048;-83
2021/01/24 14:39:38;;;;;;;5.25;1.83;;;;;;;;;;4927825;29;20051;-83
2021/01/24 14:42:05;;;;;;;3.88;1.88;;;;;;;;;;4929375;29;20056;-82
2021/01/24 14:44:31;;;;;;;5.30;2.22;;;;;;;;;;4928084;29;20150;-83